Time;durP1;ratioP1;P1;durP2;ratioP2;P2;SDS_P1;SDS_P2;PMS_P1;PMS_P2;Temp;Humidity;BMP_temperature;BMP_pressure;BME280_temperature;BME280_humidity;BME280_pressure;Samples;Min_cycle;Max_cycle;Signal;HPM_P1;HPM_P2
2020/03/09 00:00:10;;;;;;;2.7;2.15;;;;;;;3.84;62.65137;94790.34;;;;
2020/03/09 00:01:13;;;;;;;2.7;2.15;;;;;;;3.84;62.65137;94790.34;;;;
2020/03/09 00:02:22;;;;;;;2.35;1.95;;;;;;;3.91;62.89453;94792.49;;;;
2020/03/09 00:03:44;;;;;;;2.35;1.95;;;;;;;3.91;62.89453;94792.49;;;;
2020/03/09 00:04:53;;;;;;;2.35;1.95;;;;;;;3.91;62.89453;94792.49;;;;
2020/03/09 00:06:00;;;;;;;2.35;1.95;;;;;;;3.91;62.89453;94792.49;;;;
2020/03/09 00:07:01;;;;;;;2.35;1.95;;;;;;;3.91;62.89453;94792.49;;;;
2020/03/09 00:08:03;;;;;;;2.35;1.95;;;;;;;3.91;62.89453;94792.49;;;;
2020/03/09 00:09:04;;;;;;;2.35;1.95;;;;;;;3.91;62.89453;94792.49;;;;
2020/03/09 00:10:10;;;;;;;2.35;1.95;;;;;;;3.91;62.89453;94792.49;;;;
2020/03/09 00:11:11;;;;;;;2.35;1.95;;;;;;;3.91;62.89453;94792.49;;;;
2020/03/09 00:12:11;;;;;;;2.35;1.95;;;;;;;3.91;62.89453;94792.49;;;;
2020/03/09 00:13:15;;;;;;;2.8;2.2;;;;;;;3.74;61.79199;94792.21;;;;
2020/03/09 00:14:16;;;;;;;2.8;2.2;;;;;;;3.74;61.79199;94792.21;;;;
2020/03/09 00:15:16;;;;;;;2.8;2.2;;;;;;;3.74;61.79199;94792.21;;;;
2020/03/09 00:16:16;;;;;;;2.2;2;;;;;;;3.76;62.4502;94785.21;;;;
2020/03/09 00:17:17;;;;;;;2.2;2;;;;;;;3.76;62.4502;94785.21;;;;
2020/03/09 00:18:18;;;;;;;2.5;2.1;;;;;;;3.84;62.75684;94785.92;;;;
2020/03/09 00:19:18;;;;;;;2.5;2.1;;;;;;;3.84;62.75684;94785.92;;;;
2020/03/09 00:20:19;;;;;;;2.5;2.1;;;;;;;3.84;62.75684;94785.92;;;;
2020/03/09 00:21:19;;;;;;;2.65;2;;;;;;;3.91;63.01074;94782.31;;;;
2020/03/09 00:22:19;;;;;;;2.65;2;;;;;;;3.91;63.01074;94782.31;;;;
2020/03/09 00:23:24;;;;;;;2.65;2;;;;;;;3.91;63.01074;94782.31;;;;
2020/03/09 00:24:25;;;;;;;2.65;2;;;;;;;3.91;63.01074;94782.31;;;;
2020/03/09 00:25:28;;;;;;;2.65;2;;;;;;;3.91;63.01074;94782.31;;;;
2020/03/09 00:26:28;;;;;;;2.65;2;;;;;;;3.91;63.01074;94782.31;;;;
2020/03/09 00:27:30;;;;;;;2.65;2;;;;;;;3.91;63.01074;94782.31;;;;
2020/03/09 00:28:30;;;;;;;2.65;2;;;;;;;3.91;63.01074;94782.31;;;;
2020/03/09 00:29:31;;;;;;;2.65;2;;;;;;;3.91;63.01074;94782.31;;;;
2020/03/09 00:30:31;;;;;;;2.65;2;;;;;;;3.91;63.01074;94782.31;;;;
2020/03/09 00:31:32;;;;;;;4.05;2.3;;;;;;;3.74;61.99219;94790.88;;;;
2020/03/09 00:32:33;;;;;;;4.05;2.3;;;;;;;3.74;61.99219;94790.88;;;;
2020/03/09 00:33:33;;;;;;;4.05;2.3;;;;;;;3.74;61.99219;94790.88;;;;
2020/03/09 00:34:34;;;;;;;2.25;2;;;;;;;3.77;62.56738;94790.86;;;;
2020/03/09 00:35:34;;;;;;;2.25;2;;;;;;;3.77;62.56738;94790.86;;;;
2020/03/09 00:36:35;;;;;;;2.25;2;;;;;;;3.77;62.56738;94790.86;;;;
2020/03/09 00:37:35;;;;;;;2.25;2;;;;;;;3.77;62.56738;94790.86;;;;
2020/03/09 00:38:36;;;;;;;2.25;2;;;;;;;3.77;62.56738;94790.86;;;;
2020/03/09 00:39:37;;;;;;;2.25;2;;;;;;;3.77;62.56738;94790.86;;;;
2020/03/09 00:40:37;;;;;;;2.25;2;;;;;;;3.77;62.56738;94790.86;;;;
2020/03/09 00:41:38;;;;;;;2.25;2;;;;;;;3.77;62.56738;94790.86;;;;
2020/03/09 00:42:38;;;;;;;2.25;2;;;;;;;3.77;62.56738;94790.86;;;;
2020/03/09 00:43:38;;;;;;;2.25;2;;;;;;;3.77;62.56738;94790.86;;;;
2020/03/09 00:44:39;;;;;;;2.7;1.95;;;;;;;3.73;61.91602;94787.46;;;;
2020/03/09 00:45:39;;;;;;;2.7;1.95;;;;;;;3.73;61.91602;94787.46;;;;
2020/03/09 00:46:40;;;;;;;2.7;1.95;;;;;;;3.73;61.91602;94787.46;;;;
2020/03/09 00:47:41;;;;;;;2.2;1.85;;;;;;;3.78;62.60059;94784.48;;;;
2020/03/09 00:48:42;;;;;;;2.2;1.85;;;;;;;3.78;62.60059;94784.48;;;;
2020/03/09 00:49:43;;;;;;;2.15;1.95;;;;;;;3.9;62.79688;94784.27;;;;
2020/03/09 00:50:44;;;;;;;2.15;1.95;;;;;;;3.9;62.79688;94784.27;;;;
2020/03/09 00:51:45;;;;;;;2.15;1.95;;;;;;;3.9;62.79688;94784.27;;;;
2020/03/09 00:52:46;;;;;;;2.55;2.15;;;;;;;3.99;63.04297;94785.21;;;;
2020/03/09 00:53:47;;;;;;;2.55;2.15;;;;;;;3.99;63.04297;94785.21;;;;
2020/03/09 00:54:48;;;;;;;2.55;2.15;;;;;;;3.99;63.04297;94785.21;;;;
2020/03/09 00:55:49;;;;;;;2.55;2.15;;;;;;;3.99;63.04297;94785.21;;;;
2020/03/09 00:57:27;;;;;;;2.55;2.15;;;;;;;3.99;63.04297;94785.21;;;;
2020/03/09 00:58:27;;;;;;;2.55;2.15;;;;;;;3.99;63.04297;94785.21;;;;
2020/03/09 00:59:28;;;;;;;2.55;2.15;;;;;;;3.99;63.04297;94785.21;;;;
2020/03/09 01:00:41;;;;;;;2.55;2.15;;;;;;;3.99;63.04297;94785.21;;;;
2020/03/09 01:01:47;;;;;;;2.55;2.15;;;;;;;3.99;63.04297;94785.21;;;;
2020/03/09 01:03:11;;;;;;;2.55;2.15;;;;;;;3.99;63.04297;94785.21;;;;
2020/03/09 01:04:14;;;;;;;2.6;2.1;;;;;;;3.9;61.84473;94783.36;;;;
2020/03/09 01:05:14;;;;;;;2.6;2.1;;;;;;;3.9;61.84473;94783.36;;;;
2020/03/09 01:06:15;;;;;;;2.85;2;;;;;;;3.93;62.33594;94779.85;;;;
2020/03/09 01:07:19;;;;;;;2.85;2;;;;;;;3.93;62.33594;94779.85;;;;
2020/03/09 01:08:19;;;;;;;2.5;1.95;;;;;;;4.01;62.64258;94782.31;;;;
2020/03/09 01:09:20;;;;;;;2.5;1.95;;;;;;;4.01;62.64258;94782.31;;;;
2020/03/09 01:10:29;;;;;;;2.5;1.95;;;;;;;4.01;62.64258;94782.31;;;;
2020/03/09 01:11:29;;;;;;;2.5;1.95;;;;;;;4.01;62.64258;94782.31;;;;
2020/03/09 01:12:30;;;;;;;2.5;1.95;;;;;;;4.01;62.64258;94782.31;;;;
2020/03/09 01:13:31;;;;;;;2.5;1.95;;;;;;;4.01;62.64258;94782.31;;;;
2020/03/09 01:14:32;;;;;;;2.5;1.95;;;;;;;4.01;62.64258;94782.31;;;;
2020/03/09 01:15:33;;;;;;;2.5;1.95;;;;;;;4.01;62.64258;94782.31;;;;
2020/03/09 01:16:33;;;;;;;2.5;1.95;;;;;;;4.01;62.64258;94782.31;;;;
2020/03/09 01:17:36;;;;;;;2.5;1.95;;;;;;;4.01;62.64258;94782.31;;;;
2020/03/09 01:18:37;;;;;;;2.5;1.95;;;;;;;4.01;62.64258;94782.31;;;;
2020/03/09 01:19:37;;;;;;;2.5;1.95;;;;;;;4.01;62.64258;94782.31;;;;
2020/03/09 01:20:38;;;;;;;2.5;1.95;;;;;;;4.01;62.64258;94782.31;;;;
2020/03/09 01:21:38;;;;;;;2.5;1.95;;;;;;;4.01;62.64258;94782.31;;;;
2020/03/09 01:22:39;;;;;;;2.35;2.15;;;;;;;4;61.90234;94776.65;;;;
2020/03/09 01:23:40;;;;;;;2.35;2.15;;;;;;;4;61.90234;94776.65;;;;
2020/03/09 01:24:40;;;;;;;2.35;2.15;;;;;;;4;61.90234;94776.65;;;;
2020/03/09 01:25:41;;;;;;;2.35;2.15;;;;;;;4;61.90234;94776.65;;;;
2020/03/09 01:26:41;;;;;;;2.35;2.15;;;;;;;4;61.90234;94776.65;;;;
2020/03/09 01:27:43;;;;;;;2.35;2.15;;;;;;;4;61.90234;94776.65;;;;
2020/03/09 01:28:43;;;;;;;2.35;2.15;;;;;;;4;61.90234;94776.65;;;;
2020/03/09 01:29:44;;;;;;;2.35;2.15;;;;;;;4;61.90234;94776.65;;;;
2020/03/09 01:30:44;;;;;;;2.35;2.15;;;;;;;4;61.90234;94776.65;;;;
2020/03/09 01:31:45;;;;;;;2.35;2.15;;;;;;;4;61.90234;94776.65;;;;
2020/03/09 01:32:48;;;;;;;2.35;2.15;;;;;;;4;61.90234;94776.65;;;;
2020/03/09 01:33:48;;;;;;;2.35;2.15;;;;;;;4;61.90234;94776.65;;;;
2020/03/09 01:34:49;;;;;;;2.35;2.15;;;;;;;4;61.90234;94776.65;;;;
2020/03/09 01:35:49;;;;;;;3;2.2;;;;;;;3.87;61.40723;94762;;;;
2020/03/09 01:36:50;;;;;;;3;2.2;;;;;;;3.87;61.40723;94762;;;;
2020/03/09 01:37:56;;;;;;;3;2.2;;;;;;;3.87;61.40723;94762;;;;
2020/03/09 01:38:56;;;;;;;3;2.35;;;;;;;3.84;62.09082;94770.31;;;;
2020/03/09 01:39:57;;;;;;;3;2.35;;;;;;;3.84;62.09082;94770.31;;;;
2020/03/09 01:40:57;;;;;;;3;2.35;;;;;;;3.84;62.09082;94770.31;;;;
2020/03/09 01:41:58;;;;;;;3;2.35;;;;;;;3.84;62.09082;94770.31;;;;
2020/03/09 01:43:03;;;;;;;3;2.35;;;;;;;3.84;62.09082;94770.31;;;;
2020/03/09 01:44:04;;;;;;;3;2.35;;;;;;;3.84;62.09082;94770.31;;;;
2020/03/09 01:45:04;;;;;;;3;2.35;;;;;;;3.84;62.09082;94770.31;;;;
2020/03/09 01:46:09;;;;;;;3;2.35;;;;;;;3.84;62.09082;94770.31;;;;
2020/03/09 01:47:10;;;;;;;3;2.35;;;;;;;3.84;62.09082;94770.31;;;;
2020/03/09 01:48:11;;;;;;;3;2.35;;;;;;;3.84;62.09082;94770.31;;;;
2020/03/09 01:49:11;;;;;;;3;2.35;;;;;;;3.84;62.09082;94770.31;;;;
2020/03/09 01:50:12;;;;;;;3;2.35;;;;;;;3.84;62.09082;94770.31;;;;
2020/03/09 01:51:14;;;;;;;3;2.35;;;;;;;3.84;62.09082;94770.31;;;;
2020/03/09 01:52:15;;;;;;;2.7;2.5;;;;;;;3.77;62.18555;94758.91;;;;
2020/03/09 01:53:15;;;;;;;2.7;2.5;;;;;;;3.77;62.18555;94758.91;;;;
2020/03/09 01:54:16;;;;;;;2.7;2.5;;;;;;;3.77;62.18555;94758.91;;;;
2020/03/09 01:55:16;;;;;;;2.7;2.5;;;;;;;3.77;62.18555;94758.91;;;;
2020/03/09 01:56:17;;;;;;;2.7;2.5;;;;;;;3.77;62.18555;94758.91;;;;
2020/03/09 01:57:17;;;;;;;2.7;2.5;;;;;;;3.77;62.18555;94758.91;;;;
2020/03/09 01:58:18;;;;;;;2.7;2.5;;;;;;;3.77;62.18555;94758.91;;;;
2020/03/09 01:59:19;;;;;;;2.7;2.5;;;;;;;3.77;62.18555;94758.91;;;;
2020/03/09 02:00:19;;;;;;;2.7;2.5;;;;;;;3.77;62.18555;94758.91;;;;
2020/03/09 02:01:28;;;;;;;2.7;2.5;;;;;;;3.77;62.18555;94758.91;;;;
2020/03/09 02:02:29;;;;;;;3;2.3;;;;;;;3.74;61.53809;94756.55;;;;
2020/03/09 02:03:29;;;;;;;3;2.3;;;;;;;3.74;61.53809;94756.55;;;;
2020/03/09 02:04:30;;;;;;;3;2.3;;;;;;;3.74;61.53809;94756.55;;;;
2020/03/09 02:05:31;;;;;;;2.8;2.4;;;;;;;3.8;62.04199;94755.83;;;;
2020/03/09 02:06:31;;;;;;;2.8;2.4;;;;;;;3.8;62.04199;94755.83;;;;
2020/03/09 02:07:32;;;;;;;2.8;2.4;;;;;;;3.8;62.04199;94755.83;;;;
2020/03/09 02:08:32;;;;;;;2.8;2.4;;;;;;;3.8;62.04199;94755.83;;;;
2020/03/09 02:09:33;;;;;;;2.8;2.4;;;;;;;3.8;62.04199;94755.83;;;;
2020/03/09 02:10:39;;;;;;;2.8;2.4;;;;;;;3.8;62.04199;94755.83;;;;
2020/03/09 02:11:40;;;;;;;2.8;2.4;;;;;;;3.8;62.04199;94755.83;;;;
2020/03/09 02:12:41;;;;;;;2.8;2.4;;;;;;;3.8;62.04199;94755.83;;;;
2020/03/09 02:13:43;;;;;;;2.8;2.4;;;;;;;3.8;62.04199;94755.83;;;;
2020/03/09 02:14:46;;;;;;;2.8;2.4;;;;;;;3.8;62.04199;94755.83;;;;
2020/03/09 02:15:48;;;;;;;2.95;2.45;;;;;;;3.85;61.40527;94747.5;;;;
2020/03/09 02:16:49;;;;;;;2.95;2.45;;;;;;;3.85;61.40527;94747.5;;;;
2020/03/09 02:17:50;;;;;;;2.95;2.45;;;;;;;3.85;61.40527;94747.5;;;;
2020/03/09 02:18:51;;;;;;;3.5;2.7;;;;;;;3.93;61.9668;94742.88;;;;
2020/03/09 02:19:52;;;;;;;3.5;2.7;;;;;;;3.93;61.9668;94742.88;;;;
2020/03/09 02:20:56;;;;;;;3.5;2.7;;;;;;;3.93;61.9668;94742.88;;;;
2020/03/09 02:21:56;;;;;;;3.5;2.7;;;;;;;3.93;61.9668;94742.88;;;;
2020/03/09 02:22:59;;;;;;;3.5;2.7;;;;;;;3.93;61.9668;94742.88;;;;
2020/03/09 02:24:06;;;;;;;3.5;2.7;;;;;;;3.93;61.9668;94742.88;;;;
2020/03/09 02:25:07;;;;;;;3.5;2.7;;;;;;;3.93;61.9668;94742.88;;;;
2020/03/09 02:26:16;;;;;;;3.5;2.7;;;;;;;3.93;61.9668;94742.88;;;;
2020/03/09 02:27:17;;;;;;;3.5;2.7;;;;;;;3.93;61.9668;94742.88;;;;
2020/03/09 02:28:19;;;;;;;3.5;2.7;;;;;;;3.93;61.9668;94742.88;;;;
2020/03/09 02:29:19;;;;;;;3.4;2.6;;;;;;;4.14;61.37305;94752.79;;;;
2020/03/09 02:30:23;;;;;;;3.4;2.6;;;;;;;4.14;61.37305;94752.79;;;;
2020/03/09 02:31:24;;;;;;;3.05;2.5;;;;;;;4.3;61.87207;94753.25;;;;
2020/03/09 02:32:24;;;;;;;3.05;2.5;;;;;;;4.3;61.87207;94753.25;;;;
2020/03/09 02:33:25;;;;;;;3.05;2.5;;;;;;;4.3;61.87207;94753.25;;;;
2020/03/09 02:34:26;;;;;;;3.05;2.5;;;;;;;4.3;61.87207;94753.25;;;;
2020/03/09 02:35:27;;;;;;;3.05;2.5;;;;;;;4.3;61.87207;94753.25;;;;
2020/03/09 02:36:28;;;;;;;3.05;2.5;;;;;;;4.3;61.87207;94753.25;;;;
2020/03/09 02:37:28;;;;;;;3.05;2.5;;;;;;;4.3;61.87207;94753.25;;;;
2020/03/09 02:38:29;;;;;;;3.05;2.5;;;;;;;4.3;61.87207;94753.25;;;;
2020/03/09 02:39:31;;;;;;;3.05;2.5;;;;;;;4.3;61.87207;94753.25;;;;
2020/03/09 02:40:34;;;;;;;3.05;2.5;;;;;;;4.3;61.87207;94753.25;;;;
2020/03/09 02:41:34;;;;;;;3.05;2.5;;;;;;;4.3;61.87207;94753.25;;;;
2020/03/09 02:42:36;;;;;;;3.3;2.3;;;;;;;4.81;61.02344;94750.98;;;;
2020/03/09 02:43:41;;;;;;;3.3;2.3;;;;;;;4.81;61.02344;94750.98;;;;
2020/03/09 02:44:42;;;;;;;3.2;2.299999;;;;;;;5;61.39941;94748.83;;;;
2020/03/09 02:45:46;;;;;;;3.2;2.299999;;;;;;;5;61.39941;94748.83;;;;
2020/03/09 02:46:51;;;;;;;3.2;2.299999;;;;;;;5;61.39941;94748.83;;;;
2020/03/09 02:47:55;;;;;;;3.2;2.299999;;;;;;;5;61.39941;94748.83;;;;
2020/03/09 02:49:00;;;;;;;3.2;2.299999;;;;;;;5;61.39941;94748.83;;;;
2020/03/09 02:50:01;;;;;;;3.2;2.299999;;;;;;;5;61.39941;94748.83;;;;
2020/03/09 02:51:04;;;;;;;3.2;2.299999;;;;;;;5;61.39941;94748.83;;;;
2020/03/09 02:52:06;;;;;;;3.2;2.299999;;;;;;;5;61.39941;94748.83;;;;
2020/03/09 02:53:08;;;;;;;3.2;2.299999;;;;;;;5;61.39941;94748.83;;;;
2020/03/09 02:54:09;;;;;;;3.2;2.299999;;;;;;;5;61.39941;94748.83;;;;
2020/03/09 02:55:10;;;;;;;2.35;2.05;;;;;;;5.43;60.79102;94741.33;;;;
2020/03/09 02:56:10;;;;;;;2.35;2.05;;;;;;;5.43;60.79102;94741.33;;;;
2020/03/09 02:57:11;;;;;;;2.35;2.05;;;;;;;5.43;60.79102;94741.33;;;;
2020/03/09 02:58:11;;;;;;;2.4;2.2;;;;;;;5.57;61.4375;94738.86;;;;
2020/03/09 02:59:13;;;;;;;2.4;2.2;;;;;;;5.57;61.4375;94738.86;;;;
2020/03/09 03:00:15;;;;;;;2.4;2.2;;;;;;;5.57;61.4375;94738.86;;;;
2020/03/09 03:01:25;;;;;;;2.4;2.2;;;;;;;5.57;61.4375;94738.86;;;;
2020/03/09 03:02:27;;;;;;;2.4;2.2;;;;;;;5.57;61.4375;94738.86;;;;
2020/03/09 03:03:27;;;;;;;2.4;2.2;;;;;;;5.57;61.4375;94738.86;;;;
2020/03/09 03:04:36;;;;;;;2.4;2.2;;;;;;;5.57;61.4375;94738.86;;;;
2020/03/09 03:05:38;;;;;;;2.4;2.2;;;;;;;5.57;61.4375;94738.86;;;;
2020/03/09 03:06:39;;;;;;;2.4;2.2;;;;;;;5.57;61.4375;94738.86;;;;
2020/03/09 03:07:48;;;;;;;2.4;2.2;;;;;;;5.57;61.4375;94738.86;;;;
2020/03/09 03:08:49;;;;;;;3.2;2.4;;;;;;;5.83;61.07324;94741.22;;;;
2020/03/09 03:09:50;;;;;;;3.2;2.4;;;;;;;5.83;61.07324;94741.22;;;;
2020/03/09 03:11:10;;;;;;;3.4;2.3;;;;;;;5.94;62.19141;94729.5;;;;
2020/03/09 03:12:11;;;;;;;3.4;2.3;;;;;;;5.94;62.19141;94729.5;;;;
2020/03/09 03:13:12;;;;;;;3.4;2.3;;;;;;;5.94;62.19141;94729.5;;;;
2020/03/09 03:14:17;;;;;;;3.4;2.3;;;;;;;5.94;62.19141;94729.5;;;;
2020/03/09 03:15:17;;;;;;;3.4;2.3;;;;;;;5.94;62.19141;94729.5;;;;
2020/03/09 03:16:20;;;;;;;3.4;2.3;;;;;;;5.94;62.19141;94729.5;;;;
2020/03/09 03:17:25;;;;;;;3.4;2.3;;;;;;;5.94;62.19141;94729.5;;;;
2020/03/09 03:18:29;;;;;;;3.4;2.3;;;;;;;5.94;62.19141;94729.5;;;;
2020/03/09 03:19:30;;;;;;;3.4;2.3;;;;;;;5.94;62.19141;94729.5;;;;
2020/03/09 03:20:35;;;;;;;3.4;2.3;;;;;;;5.94;62.19141;94729.5;;;;
2020/03/09 03:21:37;;;;;;;2.5;2.05;;;;;;;6.12;62.90918;94724.14;;;;
2020/03/09 03:22:39;;;;;;;2.5;2.05;;;;;;;6.12;62.90918;94724.14;;;;
2020/03/09 03:23:51;;;;;;;2.5;2.05;;;;;;;6.12;62.90918;94724.14;;;;
2020/03/09 03:24:56;;;;;;;3;2.2;;;;;;;6.21;63.95215;94732.19;;;;
2020/03/09 03:25:58;;;;;;;3;2.2;;;;;;;6.21;63.95215;94732.19;;;;
2020/03/09 03:27:00;;;;;;;3;2.2;;;;;;;6.21;63.95215;94732.19;;;;
2020/03/09 03:28:13;;;;;;;3;2.2;;;;;;;6.21;63.95215;94732.19;;;;
2020/03/09 03:29:17;;;;;;;3;2.2;;;;;;;6.21;63.95215;94732.19;;;;
2020/03/09 03:30:18;;;;;;;3;2.2;;;;;;;6.21;63.95215;94732.19;;;;
2020/03/09 03:31:19;;;;;;;3;2.2;;;;;;;6.21;63.95215;94732.19;;;;
2020/03/09 03:32:19;;;;;;;3;2.2;;;;;;;6.21;63.95215;94732.19;;;;
2020/03/09 03:33:20;;;;;;;3;2.2;;;;;;;6.21;63.95215;94732.19;;;;
2020/03/09 03:34:21;;;;;;;3;2.2;;;;;;;6.21;63.95215;94732.19;;;;
2020/03/09 03:35:21;;;;;;;3.6;2.25;;;;;;;6.28;63.89844;94738.32;;;;
2020/03/09 03:36:22;;;;;;;3.6;2.25;;;;;;;6.28;63.89844;94738.32;;;;
2020/03/09 03:37:22;;;;;;;3.6;2.25;;;;;;;6.28;63.89844;94738.32;;;;
2020/03/09 03:38:23;;;;;;;3.5;2.4;;;;;;;6.32;64.71289;94738.16;;;;
2020/03/09 03:39:24;;;;;;;3.5;2.4;;;;;;;6.32;64.71289;94738.16;;;;
2020/03/09 03:40:28;;;;;;;3.5;2.4;;;;;;;6.32;64.71289;94738.16;;;;
2020/03/09 03:41:32;;;;;;;3.5;2.4;;;;;;;6.32;64.71289;94738.16;;;;
2020/03/09 03:42:33;;;;;;;3.5;2.4;;;;;;;6.32;64.71289;94738.16;;;;
2020/03/09 03:43:33;;;;;;;3.5;2.4;;;;;;;6.32;64.71289;94738.16;;;;
2020/03/09 03:44:34;;;;;;;3.5;2.4;;;;;;;6.32;64.71289;94738.16;;;;
2020/03/09 03:45:35;;;;;;;3.5;2.4;;;;;;;6.32;64.71289;94738.16;;;;
2020/03/09 03:46:36;;;;;;;3.5;2.4;;;;;;;6.32;64.71289;94738.16;;;;
2020/03/09 03:47:37;;;;;;;3.5;2.4;;;;;;;6.32;64.71289;94738.16;;;;
2020/03/09 03:48:39;;;;;;;2.8;2;;;;;;;6.21;64.60059;94736.21;;;;
2020/03/09 03:49:41;;;;;;;2.8;2;;;;;;;6.21;64.60059;94736.21;;;;
2020/03/09 03:50:41;;;;;;;2.8;2;;;;;;;6.21;64.60059;94736.21;;;;
2020/03/09 03:51:42;;;;;;;3.65;2.45;;;;;;;6.24;65.67871;94739.26;;;;
2020/03/09 03:52:48;;;;;;;3.65;2.45;;;;;;;6.24;65.67871;94739.26;;;;
2020/03/09 03:53:54;;;;;;;3.65;2.45;;;;;;;6.24;65.67871;94739.26;;;;
2020/03/09 03:54:55;;;;;;;3.65;2.45;;;;;;;6.24;65.67871;94739.26;;;;
2020/03/09 03:56:03;;;;;;;3.65;2.45;;;;;;;6.24;65.67871;94739.26;;;;
2020/03/09 03:57:06;;;;;;;3.65;2.45;;;;;;;6.24;65.67871;94739.26;;;;
2020/03/09 03:58:09;;;;;;;3.65;2.45;;;;;;;6.24;65.67871;94739.26;;;;
2020/03/09 03:59:12;;;;;;;3.65;2.45;;;;;;;6.24;65.67871;94739.26;;;;
2020/03/09 04:00:17;;;;;;;3.65;2.45;;;;;;;6.24;65.67871;94739.26;;;;
2020/03/09 04:01:22;;;;;;;3.6;2.45;;;;;;;6.16;66.66406;94735.55;;;;
2020/03/09 04:02:23;;;;;;;3.6;2.45;;;;;;;6.16;66.66406;94735.55;;;;
2020/03/09 04:03:29;;;;;;;3.6;2.45;;;;;;;6.16;66.66406;94735.55;;;;
2020/03/09 04:04:34;;;;;;;3.6;2.45;;;;;;;6.16;66.66406;94735.55;;;;
2020/03/09 04:05:40;;;;;;;3.6;2.45;;;;;;;6.16;66.66406;94735.55;;;;
2020/03/09 04:06:48;;;;;;;3.6;2.45;;;;;;;6.16;66.66406;94735.55;;;;
2020/03/09 04:07:53;;;;;;;3.6;2.45;;;;;;;6.16;66.66406;94735.55;;;;
2020/03/09 04:08:55;;;;;;;3.6;2.45;;;;;;;6.16;66.66406;94735.55;;;;
2020/03/09 04:10:05;;;;;;;3.6;2.45;;;;;;;6.16;66.66406;94735.55;;;;
2020/03/09 04:11:17;;;;;;;3.6;2.45;;;;;;;6.16;66.66406;94735.55;;;;
2020/03/09 04:12:18;;;;;;;4.1;3.2;;;;;;;6;67.48828;94729.94;;;;
2020/03/09 04:13:19;;;;;;;4.1;3.2;;;;;;;6;67.48828;94729.94;;;;
2020/03/09 04:14:19;;;;;;;4.1;3.2;;;;;;;6;67.48828;94729.94;;;;
2020/03/09 04:15:20;;;;;;;4.1;3.2;;;;;;;6;67.48828;94729.94;;;;
2020/03/09 04:16:23;;;;;;;4.1;3.2;;;;;;;6;67.48828;94729.94;;;;
2020/03/09 04:17:24;;;;;;;4.1;3.2;;;;;;;6;67.48828;94729.94;;;;
2020/03/09 04:18:24;;;;;;;4.1;3.2;;;;;;;6;67.48828;94729.94;;;;
2020/03/09 04:19:25;;;;;;;4.1;3.2;;;;;;;6;67.48828;94729.94;;;;
2020/03/09 04:20:26;;;;;;;4.1;3.2;;;;;;;6;67.48828;94729.94;;;;
2020/03/09 04:21:30;;;;;;;4.1;3.2;;;;;;;6;67.48828;94729.94;;;;
2020/03/09 04:22:31;;;;;;;4.349999;3.25;;;;;;;5.79;68.11426;94733.29;;;;
2020/03/09 04:23:32;;;;;;;4.349999;3.25;;;;;;;5.79;68.11426;94733.29;;;;
2020/03/09 04:24:37;;;;;;;4.349999;3.25;;;;;;;5.79;68.11426;94733.29;;;;
2020/03/09 04:25:38;;;;;;;4.85;3.2;;;;;;;5.79;69.67285;94726.59;;;;
2020/03/09 04:26:39;;;;;;;4.85;3.2;;;;;;;5.79;69.67285;94726.59;;;;
2020/03/09 04:27:41;;;;;;;4.85;3.2;;;;;;;5.79;69.67285;94726.59;;;;
2020/03/09 04:28:43;;;;;;;4.85;3.2;;;;;;;5.79;69.67285;94726.59;;;;
2020/03/09 04:29:45;;;;;;;4.85;3.2;;;;;;;5.79;69.67285;94726.59;;;;
2020/03/09 04:30:46;;;;;;;4.85;3.2;;;;;;;5.79;69.67285;94726.59;;;;
2020/03/09 04:31:47;;;;;;;4.85;3.2;;;;;;;5.79;69.67285;94726.59;;;;
2020/03/09 04:32:56;;;;;;;4.85;3.2;;;;;;;5.79;69.67285;94726.59;;;;
2020/03/09 04:33:57;;;;;;;4.85;3.2;;;;;;;5.79;69.67285;94726.59;;;;
2020/03/09 04:34:58;;;;;;;4.85;3.2;;;;;;;5.79;69.67285;94726.59;;;;
2020/03/09 04:35:58;;;;;;;4.399999;3.2;;;;;;;5.61;69.49414;94739.14;;;;
2020/03/09 04:36:59;;;;;;;4.399999;3.2;;;;;;;5.61;69.49414;94739.14;;;;
2020/03/09 04:38:00;;;;;;;4.399999;3.2;;;;;;;5.61;69.49414;94739.14;;;;
2020/03/09 04:39:01;;;;;;;4.399999;3.2;;;;;;;5.61;69.49414;94739.14;;;;
2020/03/09 04:40:06;;;;;;;4.399999;3.2;;;;;;;5.61;69.49414;94739.14;;;;
2020/03/09 04:41:10;;;;;;;4.399999;3.2;;;;;;;5.61;69.49414;94739.14;;;;
2020/03/09 04:42:11;;;;;;;4.399999;3.2;;;;;;;5.61;69.49414;94739.14;;;;
2020/03/09 04:43:14;;;;;;;4.399999;3.2;;;;;;;5.61;69.49414;94739.14;;;;
2020/03/09 04:44:16;;;;;;;4.399999;3.2;;;;;;;5.61;69.49414;94739.14;;;;
2020/03/09 04:45:17;;;;;;;4.399999;3.2;;;;;;;5.61;69.49414;94739.14;;;;
2020/03/09 04:46:21;;;;;;;4.399999;3.2;;;;;;;5.61;69.49414;94739.14;;;;
2020/03/09 04:47:24;;;;;;;4.649999;3.649999;;;;;;;5.5;69.85742;94731.81;;;;
2020/03/09 04:48:25;;;;;;;4.649999;3.649999;;;;;;;5.5;69.85742;94731.81;;;;
2020/03/09 04:49:27;;;;;;;4.649999;3.649999;;;;;;;5.5;69.85742;94731.81;;;;
2020/03/09 04:50:28;;;;;;;4.649999;3.649999;;;;;;;5.5;69.85742;94731.81;;;;
2020/03/09 04:51:35;;;;;;;4.649999;3.649999;;;;;;;5.5;69.85742;94731.81;;;;
2020/03/09 04:52:38;;;;;;;4.649999;3.649999;;;;;;;5.5;69.85742;94731.81;;;;
2020/03/09 04:53:44;;;;;;;4.649999;3.649999;;;;;;;5.5;69.85742;94731.81;;;;
2020/03/09 04:54:45;;;;;;;4.649999;3.649999;;;;;;;5.5;69.85742;94731.81;;;;
2020/03/09 04:55:49;;;;;;;4.649999;3.649999;;;;;;;5.5;69.85742;94731.81;;;;
2020/03/09 04:56:53;;;;;;;4.649999;3.649999;;;;;;;5.5;69.85742;94731.81;;;;
2020/03/09 04:57:55;;;;;;;4.050001;3.55;;;;;;;5.36;70.66016;94725.31;;;;
2020/03/09 04:58:59;;;;;;;4.050001;3.55;;;;;;;5.36;70.66016;94725.31;;;;
2020/03/09 04:59:59;;;;;;;4.9;3.85;;;;;;;5.39;71.76465;94722.22;;;;
2020/03/09 05:01:00;;;;;;;4.9;3.85;;;;;;;5.39;71.76465;94722.22;;;;
2020/03/09 05:02:04;;;;;;;4.9;3.85;;;;;;;5.39;71.76465;94722.22;;;;
2020/03/09 05:03:05;;;;;;;4.9;3.85;;;;;;;5.39;71.76465;94722.22;;;;
2020/03/09 05:04:07;;;;;;;4.9;3.85;;;;;;;5.39;71.76465;94722.22;;;;
2020/03/09 05:05:12;;;;;;;4.9;3.85;;;;;;;5.39;71.76465;94722.22;;;;
2020/03/09 05:06:13;;;;;;;4.9;3.85;;;;;;;5.39;71.76465;94722.22;;;;
2020/03/09 05:07:14;;;;;;;4.9;3.85;;;;;;;5.39;71.76465;94722.22;;;;
2020/03/09 05:08:15;;;;;;;4.9;3.85;;;;;;;5.39;71.76465;94722.22;;;;
2020/03/09 05:09:16;;;;;;;4.9;3.85;;;;;;;5.39;71.76465;94722.22;;;;
2020/03/09 05:10:17;;;;;;;4.149999;3.75;;;;;;;5.29;71.83398;94716.92;;;;
2020/03/09 05:11:17;;;;;;;4.149999;3.75;;;;;;;5.29;71.83398;94716.92;;;;
2020/03/09 05:12:18;;;;;;;4.149999;3.75;;;;;;;5.29;71.83398;94716.92;;;;
2020/03/09 05:13:19;;;;;;;5.299999;4.05;;;;;;;5.33;73.3418;94711.95;;;;
2020/03/09 05:14:20;;;;;;;5.299999;4.05;;;;;;;5.33;73.3418;94711.95;;;;
2020/03/09 05:15:20;;;;;;;5.299999;4.05;;;;;;;5.33;73.3418;94711.95;;;;
2020/03/09 05:16:37;;;;;;;5.299999;4.05;;;;;;;5.33;73.3418;94711.95;;;;
2020/03/09 05:17:38;;;;;;;5.299999;4.05;;;;;;;5.33;73.3418;94711.95;;;;
2020/03/09 05:18:40;;;;;;;5.299999;4.05;;;;;;;5.33;73.3418;94711.95;;;;
2020/03/09 05:19:41;;;;;;;5.299999;4.05;;;;;;;5.33;73.3418;94711.95;;;;
2020/03/09 05:20:42;;;;;;;5.299999;4.05;;;;;;;5.33;73.3418;94711.95;;;;
2020/03/09 05:21:43;;;;;;;5.299999;4.05;;;;;;;5.33;73.3418;94711.95;;;;
2020/03/09 05:22:46;;;;;;;5.299999;4.05;;;;;;;5.33;73.3418;94711.95;;;;
2020/03/09 05:23:47;;;;;;;3.9;3.35;;;;;;;5.27;73.2373;94713.26;;;;
2020/03/09 05:24:47;;;;;;;3.9;3.35;;;;;;;5.27;73.2373;94713.26;;;;
2020/03/09 05:25:49;;;;;;;3.9;3.35;;;;;;;5.27;73.2373;94713.26;;;;
2020/03/09 05:26:51;;;;;;;3.9;3.35;;;;;;;5.27;73.2373;94713.26;;;;
2020/03/09 05:27:55;;;;;;;3.9;3.35;;;;;;;5.27;73.2373;94713.26;;;;
2020/03/09 05:28:59;;;;;;;3.9;3.35;;;;;;;5.27;73.2373;94713.26;;;;
2020/03/09 05:29:59;;;;;;;3.9;3.35;;;;;;;5.27;73.2373;94713.26;;;;
2020/03/09 05:31:00;;;;;;;3.9;3.35;;;;;;;5.27;73.2373;94713.26;;;;
2020/03/09 05:32:00;;;;;;;3.9;3.35;;;;;;;5.27;73.2373;94713.26;;;;
2020/03/09 05:33:03;;;;;;;3.9;3.35;;;;;;;5.27;73.2373;94713.26;;;;
2020/03/09 05:34:05;;;;;;;3.9;3.35;;;;;;;5.27;73.2373;94713.26;;;;
2020/03/09 05:35:06;;;;;;;3.6;3.25;;;;;;;5.25;73.33984;94705.97;;;;
2020/03/09 05:36:08;;;;;;;3.6;3.25;;;;;;;5.25;73.33984;94705.97;;;;
2020/03/09 05:37:08;;;;;;;3.6;3.25;;;;;;;5.25;73.33984;94705.97;;;;
2020/03/09 05:38:10;;;;;;;3.6;3.25;;;;;;;5.25;73.33984;94705.97;;;;
2020/03/09 05:39:11;;;;;;;3.6;3.25;;;;;;;5.25;73.33984;94705.97;;;;
2020/03/09 05:40:13;;;;;;;3.6;3.25;;;;;;;5.25;73.33984;94705.97;;;;
2020/03/09 05:41:13;;;;;;;3.6;3.25;;;;;;;5.25;73.33984;94705.97;;;;
2020/03/09 05:42:14;;;;;;;3.6;3.25;;;;;;;5.25;73.33984;94705.97;;;;
2020/03/09 05:43:16;;;;;;;3.6;3.25;;;;;;;5.25;73.33984;94705.97;;;;
2020/03/09 05:44:17;;;;;;;3.6;3.25;;;;;;;5.25;73.33984;94705.97;;;;
2020/03/09 05:45:18;;;;;;;5.6;3.45;;;;;;;5.19;74.08984;94711.76;;;;
2020/03/09 05:46:18;;;;;;;5.6;3.45;;;;;;;5.19;74.08984;94711.76;;;;
2020/03/09 05:47:19;;;;;;;5.6;3.45;;;;;;;5.19;74.08984;94711.76;;;;
2020/03/09 05:48:20;;;;;;;5.6;3.45;;;;;;;5.19;74.08984;94711.76;;;;
2020/03/09 05:49:20;;;;;;;5.6;3.45;;;;;;;5.19;74.08984;94711.76;;;;
2020/03/09 05:50:21;;;;;;;5.6;3.45;;;;;;;5.19;74.08984;94711.76;;;;
2020/03/09 05:51:22;;;;;;;5.6;3.45;;;;;;;5.19;74.08984;94711.76;;;;
2020/03/09 05:52:22;;;;;;;5.6;3.45;;;;;;;5.19;74.08984;94711.76;;;;
2020/03/09 05:53:23;;;;;;;5.6;3.45;;;;;;;5.19;74.08984;94711.76;;;;
2020/03/09 05:54:23;;;;;;;5.6;3.45;;;;;;;5.19;74.08984;94711.76;;;;
2020/03/09 05:55:24;;;;;;;5.1;3.15;;;;;;;5.23;74.33887;94707.62;;;;
2020/03/09 05:56:24;;;;;;;5.1;3.15;;;;;;;5.23;74.33887;94707.62;;;;
2020/03/09 05:57:25;;;;;;;5.1;3.15;;;;;;;5.23;74.33887;94707.62;;;;
2020/03/09 05:58:25;;;;;;;5.1;3.15;;;;;;;5.23;74.33887;94707.62;;;;
2020/03/09 05:59:26;;;;;;;5.1;3.15;;;;;;;5.23;74.33887;94707.62;;;;
2020/03/09 06:00:26;;;;;;;5.1;3.15;;;;;;;5.23;74.33887;94707.62;;;;
2020/03/09 06:01:27;;;;;;;5.1;3.15;;;;;;;5.23;74.33887;94707.62;;;;
2020/03/09 06:02:28;;;;;;;5.1;3.15;;;;;;;5.23;74.33887;94707.62;;;;
2020/03/09 06:03:28;;;;;;;5.1;3.15;;;;;;;5.23;74.33887;94707.62;;;;